Portada
METAR-TAF:

METAR-TAF

Aeroports :

Sukhothai, Tailàndia

latitud: 17-14-16N, longitud: 099-49-05E, altitud: 55 m

Observació

L'informe es va fer fa 35 minuts, a les 03:00 UTC
Vent 2 kt amb direcció variable
Temperatura 28°C
Humitat 79%
Pressió 1013 hPa
Visibilitat 10 km o més
Núvols disperses a una alçada de 2500 ft
Cel ennuvolat a una alçada de 8000 ft

METAR: VTPO 070300Z VRB02KT 9999 SCT025 BKN080 28/24 Q1013 NOSIG

Hora: 10:35 (03:35 UTC)

Pronòstic

L'informe es va fer fa 4 hores i 35 minuts, a les 23:00 UTC
Pronòstic vàlid del 07 a les 00 UTC al 07 a les 24 UTC
Vent 5 kt del Sud
Visibilitat 10 km o més
Escasses núvols a una alçada de 2500 ft

TAF: VTPO 062300Z 0700/0724 18005KT 9999 FEW025

Observacions i pronòstics meteorològics de més de 4000 aeroports (METAR i TAF).

Les estacions disponibles són els punts grocs i vermells al mapa.

Posi el ratolí al punt desitjat per veure el nom de l'estació.

Feu clic per veure les observacions i els pronòstics meteorològics.

Per canviar el mapa: feu clic els botons verds amb una creu de color negre per apropar; al botó verd amb un guió per allunyar la imatge; o en les fletxes verdes per a mapes adjacents.


METAR-TAF: